sensor_id;sensor_type;location;lat;lon;timestamp;P1;durP1;ratioP1;P2;durP2;ratioP2
7473;SDS011;3778;42.572;23.426;2022-08-21T00:01:33;9.90;;;4.40;;
7473;SDS011;3778;42.572;23.426;2022-08-21T00:04:03;8.20;;;4.63;;
7473;SDS011;3778;42.572;23.426;2022-08-21T00:06:31;9.80;;;4.40;;
7473;SDS011;3778;42.572;23.426;2022-08-21T00:08:58;11.63;;;5.10;;
7473;SDS011;3778;42.572;23.426;2022-08-21T00:11:25;8.10;;;5.30;;
7473;SDS011;3778;42.572;23.426;2022-08-21T00:13:52;15.10;;;5.33;;
7473;SDS011;3778;42.572;23.426;2022-08-21T00:16:19;8.47;;;5.10;;
7473;SDS011;3778;42.572;23.426;2022-08-21T00:18:47;12.47;;;7.83;;
7473;SDS011;3778;42.572;23.426;2022-08-21T00:21:15;14.87;;;9.30;;
7473;SDS011;3778;42.572;23.426;2022-08-21T00:23:42;18.30;;;9.93;;
7473;SDS011;3778;42.572;23.426;2022-08-21T00:26:09;19.23;;;11.20;;
7473;SDS011;3778;42.572;23.426;2022-08-21T00:28:36;20.77;;;12.00;;
7473;SDS011;3778;42.572;23.426;2022-08-21T00:31:03;20.70;;;10.80;;
7473;SDS011;3778;42.572;23.426;2022-08-21T00:33:30;17.93;;;10.70;;
7473;SDS011;3778;42.572;23.426;2022-08-21T00:35:59;18.83;;;10.50;;
7473;SDS011;3778;42.572;23.426;2022-08-21T00:38:25;18.63;;;10.37;;
7473;SDS011;3778;42.572;23.426;2022-08-21T00:40:53;16.83;;;9.63;;
7473;SDS011;3778;42.572;23.426;2022-08-21T00:43:24;20.20;;;11.37;;
7473;SDS011;3778;42.572;23.426;2022-08-21T00:45:53;17.57;;;10.77;;
7473;SDS011;3778;42.572;23.426;2022-08-21T00:48:20;25.93;;;11.30;;
7473;SDS011;3778;42.572;23.426;2022-08-21T00:50:48;17.53;;;12.13;;
7473;SDS011;3778;42.572;23.426;2022-08-21T00:53:20;21.27;;;10.87;;
7473;SDS011;3778;42.572;23.426;2022-08-21T00:55:48;23.83;;;11.87;;
7473;SDS011;3778;42.572;23.426;2022-08-21T00:58:15;18.80;;;10.80;;
7473;SDS011;3778;42.572;23.426;2022-08-21T01:00:44;16.13;;;10.33;;
7473;SDS011;3778;42.572;23.426;2022-08-21T01:03:14;24.47;;;10.33;;
7473;SDS011;3778;42.572;23.426;2022-08-21T01:05:45;20.67;;;10.03;;
7473;SDS011;3778;42.572;23.426;2022-08-21T01:08:12;17.10;;;10.60;;
7473;SDS011;3778;42.572;23.426;2022-08-21T01:10:43;15.87;;;10.33;;
7473;SDS011;3778;42.572;23.426;2022-08-21T01:13:10;22.20;;;12.33;;
7473;SDS011;3778;42.572;23.426;2022-08-21T01:15:40;17.73;;;10.43;;
7473;SDS011;3778;42.572;23.426;2022-08-21T01:18:11;21.13;;;10.63;;
7473;SDS011;3778;42.572;23.426;2022-08-21T01:20:40;15.80;;;7.70;;
7473;SDS011;3778;42.572;23.426;2022-08-21T01:23:11;14.73;;;7.20;;
7473;SDS011;3778;42.572;23.426;2022-08-21T01:25:38;10.70;;;6.10;;
7473;SDS011;3778;42.572;23.426;2022-08-21T01:28:06;14.90;;;5.43;;
7473;SDS011;3778;42.572;23.426;2022-08-21T01:30:37;14.70;;;5.83;;
7473;SDS011;3778;42.572;23.426;2022-08-21T01:33:05;12.90;;;5.60;;
7473;SDS011;3778;42.572;23.426;2022-08-21T01:35:32;13.20;;;5.77;;
7473;SDS011;3778;42.572;23.426;2022-08-21T01:37:59;13.80;;;5.33;;
7473;SDS011;3778;42.572;23.426;2022-08-21T01:40:28;10.57;;;4.73;;
7473;SDS011;3778;42.572;23.426;2022-08-21T01:42:54;7.27;;;4.23;;
7473;SDS011;3778;42.572;23.426;2022-08-21T01:45:21;8.13;;;4.80;;
7473;SDS011;3778;42.572;23.426;2022-08-21T01:47:48;12.53;;;4.10;;
7473;SDS011;3778;42.572;23.426;2022-08-21T01:50:17;11.93;;;4.70;;
7473;SDS011;3778;42.572;23.426;2022-08-21T01:52:45;11.23;;;4.33;;
7473;SDS011;3778;42.572;23.426;2022-08-21T01:55:12;9.07;;;4.53;;
7473;SDS011;3778;42.572;23.426;2022-08-21T01:57:42;9.50;;;4.50;;
7473;SDS011;3778;42.572;23.426;2022-08-21T02:00:11;7.20;;;4.37;;
7473;SDS011;3778;42.572;23.426;2022-08-21T02:02:40;10.40;;;4.63;;
7473;SDS011;3778;42.572;23.426;2022-08-21T02:05:07;6.80;;;4.40;;
7473;SDS011;3778;42.572;23.426;2022-08-21T02:07:36;16.63;;;4.97;;
7473;SDS011;3778;42.572;23.426;2022-08-21T02:10:05;10.23;;;5.90;;
7473;SDS011;3778;42.572;23.426;2022-08-21T02:12:34;12.17;;;5.60;;
7473;SDS011;3778;42.572;23.426;2022-08-21T02:15:03;16.73;;;4.57;;
7473;SDS011;3778;42.572;23.426;2022-08-21T02:17:36;10.97;;;4.90;;
7473;SDS011;3778;42.572;23.426;2022-08-21T02:20:04;9.93;;;4.83;;
7473;SDS011;3778;42.572;23.426;2022-08-21T02:22:31;8.70;;;4.90;;
7473;SDS011;3778;42.572;23.426;2022-08-21T02:24:58;9.00;;;5.10;;
7473;SDS011;3778;42.572;23.426;2022-08-21T02:27:25;7.67;;;4.73;;
7473;SDS011;3778;42.572;23.426;2022-08-21T02:29:52;9.43;;;4.70;;
7473;SDS011;3778;42.572;23.426;2022-08-21T02:32:21;9.33;;;4.77;;
7473;SDS011;3778;42.572;23.426;2022-08-21T02:34:48;12.20;;;6.17;;
7473;SDS011;3778;42.572;23.426;2022-08-21T02:37:15;17.90;;;5.03;;
7473;SDS011;3778;42.572;23.426;2022-08-21T02:39:41;16.47;;;5.33;;
7473;SDS011;3778;42.572;23.426;2022-08-21T02:42:08;14.00;;;5.03;;
7473;SDS011;3778;42.572;23.426;2022-08-21T02:44:35;12.93;;;4.97;;
7473;SDS011;3778;42.572;23.426;2022-08-21T02:47:01;14.10;;;5.00;;
7473;SDS011;3778;42.572;23.426;2022-08-21T02:49:30;10.27;;;4.83;;
7473;SDS011;3778;42.572;23.426;2022-08-21T02:51:57;10.70;;;5.50;;
7473;SDS011;3778;42.572;23.426;2022-08-21T02:54:24;14.07;;;5.97;;
7473;SDS011;3778;42.572;23.426;2022-08-21T02:56:51;11.03;;;5.00;;
7473;SDS011;3778;42.572;23.426;2022-08-21T02:59:17;7.70;;;5.37;;
7473;SDS011;3778;42.572;23.426;2022-08-21T03:01:44;9.40;;;5.10;;
7473;SDS011;3778;42.572;23.426;2022-08-21T03:04:11;13.00;;;5.37;;
7473;SDS011;3778;42.572;23.426;2022-08-21T03:06:39;14.03;;;6.73;;
7473;SDS011;3778;42.572;23.426;2022-08-21T03:09:06;13.63;;;5.33;;
7473;SDS011;3778;42.572;23.426;2022-08-21T03:11:33;9.77;;;5.50;;
7473;SDS011;3778;42.572;23.426;2022-08-21T03:14:01;7.90;;;4.57;;
7473;SDS011;3778;42.572;23.426;2022-08-21T03:16:27;8.23;;;5.13;;
7473;SDS011;3778;42.572;23.426;2022-08-21T03:18:54;8.57;;;4.10;;
7473;SDS011;3778;42.572;23.426;2022-08-21T03:21:21;8.77;;;4.57;;
7473;SDS011;3778;42.572;23.426;2022-08-21T03:23:50;12.10;;;4.77;;
7473;SDS011;3778;42.572;23.426;2022-08-21T03:26:19;9.50;;;5.00;;
7473;SDS011;3778;42.572;23.426;2022-08-21T03:28:45;9.13;;;4.50;;
7473;SDS011;3778;42.572;23.426;2022-08-21T03:31:12;11.23;;;5.03;;
7473;SDS011;3778;42.572;23.426;2022-08-21T03:33:39;8.40;;;3.90;;
7473;SDS011;3778;42.572;23.426;2022-08-21T03:36:06;7.20;;;4.60;;
7473;SDS011;3778;42.572;23.426;2022-08-21T03:38:36;8.23;;;4.30;;
7473;SDS011;3778;42.572;23.426;2022-08-21T03:41:05;12.47;;;5.17;;
7473;SDS011;3778;42.572;23.426;2022-08-21T03:43:32;12.20;;;5.43;;
7473;SDS011;3778;42.572;23.426;2022-08-21T03:46:00;8.07;;;5.50;;
7473;SDS011;3778;42.572;23.426;2022-08-21T03:48:28;13.40;;;5.17;;
7473;SDS011;3778;42.572;23.426;2022-08-21T03:50:55;15.23;;;5.37;;
7473;SDS011;3778;42.572;23.426;2022-08-21T03:53:22;11.87;;;5.40;;
7473;SDS011;3778;42.572;23.426;2022-08-21T03:55:50;12.57;;;5.53;;
7473;SDS011;3778;42.572;23.426;2022-08-21T03:58:20;10.90;;;4.70;;
7473;SDS011;3778;42.572;23.426;2022-08-21T04:00:52;10.03;;;4.70;;
7473;SDS011;3778;42.572;23.426;2022-08-21T04:03:21;11.97;;;4.93;;
7473;SDS011;3778;42.572;23.426;2022-08-21T04:05:49;13.30;;;6.07;;
7473;SDS011;3778;42.572;23.426;2022-08-21T04:08:16;9.83;;;4.70;;
7473;SDS011;3778;42.572;23.426;2022-08-21T04:10:44;11.53;;;4.70;;
7473;SDS011;3778;42.572;23.426;2022-08-21T04:13:14;7.13;;;4.47;;
7473;SDS011;3778;42.572;23.426;2022-08-21T04:15:43;8.30;;;4.70;;
7473;SDS011;3778;42.572;23.426;2022-08-21T04:18:09;24.57;;;5.43;;
7473;SDS011;3778;42.572;23.426;2022-08-21T04:20:36;10.67;;;4.80;;
7473;SDS011;3778;42.572;23.426;2022-08-21T04:23:03;7.37;;;4.20;;
7473;SDS011;3778;42.572;23.426;2022-08-21T04:25:30;11.67;;;4.70;;
7473;SDS011;3778;42.572;23.426;2022-08-21T04:27:57;13.07;;;4.80;;
7473;SDS011;3778;42.572;23.426;2022-08-21T04:30:24;7.67;;;4.17;;
7473;SDS011;3778;42.572;23.426;2022-08-21T04:32:53;10.63;;;3.93;;
7473;SDS011;3778;42.572;23.426;2022-08-21T04:35:21;11.00;;;5.10;;
7473;SDS011;3778;42.572;23.426;2022-08-21T04:37:49;10.10;;;4.47;;
7473;SDS011;3778;42.572;23.426;2022-08-21T04:40:17;10.77;;;4.80;;
7473;SDS011;3778;42.572;23.426;2022-08-21T04:42:45;9.67;;;5.20;;
7473;SDS011;3778;42.572;23.426;2022-08-21T04:45:18;9.90;;;4.43;;
7473;SDS011;3778;42.572;23.426;2022-08-21T04:47:48;16.17;;;5.77;;
7473;SDS011;3778;42.572;23.426;2022-08-21T04:50:17;6.57;;;4.73;;
7473;SDS011;3778;42.572;23.426;2022-08-21T04:52:44;40.50;;;9.33;;
7473;SDS011;3778;42.572;23.426;2022-08-21T04:55:12;8.70;;;4.47;;
7473;SDS011;3778;42.572;23.426;2022-08-21T04:57:40;11.07;;;5.13;;
7473;SDS011;3778;42.572;23.426;2022-08-21T05:00:08;9.43;;;4.93;;
7473;SDS011;3778;42.572;23.426;2022-08-21T05:02:38;7.70;;;4.57;;
7473;SDS011;3778;42.572;23.426;2022-08-21T05:05:06;13.20;;;5.47;;
7473;SDS011;3778;42.572;23.426;2022-08-21T05:07:35;8.73;;;5.73;;
7473;SDS011;3778;42.572;23.426;2022-08-21T05:10:02;11.63;;;4.87;;
7473;SDS011;3778;42.572;23.426;2022-08-21T05:12:30;10.63;;;5.27;;
7473;SDS011;3778;42.572;23.426;2022-08-21T05:14:58;6.17;;;4.67;;
7473;SDS011;3778;42.572;23.426;2022-08-21T05:17:25;6.63;;;4.30;;
7473;SDS011;3778;42.572;23.426;2022-08-21T05:19:52;8.47;;;4.73;;
7473;SDS011;3778;42.572;23.426;2022-08-21T05:22:20;6.43;;;4.80;;
7473;SDS011;3778;42.572;23.426;2022-08-21T05:24:48;5.97;;;4.10;;
7473;SDS011;3778;42.572;23.426;2022-08-21T05:27:16;7.17;;;4.57;;
7473;SDS011;3778;42.572;23.426;2022-08-21T05:29:42;12.00;;;6.50;;
7473;SDS011;3778;42.572;23.426;2022-08-21T05:32:10;10.20;;;4.03;;
7473;SDS011;3778;42.572;23.426;2022-08-21T05:34:37;10.23;;;4.50;;
7473;SDS011;3778;42.572;23.426;2022-08-21T05:37:04;9.53;;;4.47;;
7473;SDS011;3778;42.572;23.426;2022-08-21T05:39:31;9.23;;;4.30;;
7473;SDS011;3778;42.572;23.426;2022-08-21T05:42:00;7.00;;;3.73;;
7473;SDS011;3778;42.572;23.426;2022-08-21T05:44:26;7.17;;;3.90;;
7473;SDS011;3778;42.572;23.426;2022-08-21T05:46:53;5.60;;;3.97;;
7473;SDS011;3778;42.572;23.426;2022-08-21T05:49:20;5.97;;;4.07;;
7473;SDS011;3778;42.572;23.426;2022-08-21T05:51:47;16.67;;;4.00;;
7473;SDS011;3778;42.572;23.426;2022-08-21T05:54:14;9.70;;;4.90;;
7473;SDS011;3778;42.572;23.426;2022-08-21T05:56:40;8.57;;;3.93;;
7473;SDS011;3778;42.572;23.426;2022-08-21T05:59:11;10.13;;;4.20;;
7473;SDS011;3778;42.572;23.426;2022-08-21T06:01:38;7.13;;;4.13;;
7473;SDS011;3778;42.572;23.426;2022-08-21T06:04:05;7.97;;;4.50;;
7473;SDS011;3778;42.572;23.426;2022-08-21T06:06:33;8.83;;;4.33;;
7473;SDS011;3778;42.572;23.426;2022-08-21T06:09:00;10.20;;;4.00;;
7473;SDS011;3778;42.572;23.426;2022-08-21T06:11:27;6.40;;;4.03;;
7473;SDS011;3778;42.572;23.426;2022-08-21T06:13:53;11.37;;;4.40;;
7473;SDS011;3778;42.572;23.426;2022-08-21T06:16:21;6.90;;;4.03;;
7473;SDS011;3778;42.572;23.426;2022-08-21T06:18:48;11.80;;;4.03;;
7473;SDS011;3778;42.572;23.426;2022-08-21T06:21:16;6.83;;;4.40;;
7473;SDS011;3778;42.572;23.426;2022-08-21T06:23:42;6.80;;;3.97;;
7473;SDS011;3778;42.572;23.426;2022-08-21T06:26:10;7.90;;;4.13;;
7473;SDS011;3778;42.572;23.426;2022-08-21T06:28:39;13.33;;;4.73;;
7473;SDS011;3778;42.572;23.426;2022-08-21T06:31:10;7.90;;;3.80;;
7473;SDS011;3778;42.572;23.426;2022-08-21T06:33:40;5.80;;;4.13;;
7473;SDS011;3778;42.572;23.426;2022-08-21T06:36:07;6.33;;;3.97;;
7473;SDS011;3778;42.572;23.426;2022-08-21T06:38:34;5.63;;;4.07;;
7473;SDS011;3778;42.572;23.426;2022-08-21T06:41:01;13.50;;;3.77;;
7473;SDS011;3778;42.572;23.426;2022-08-21T06:43:28;10.83;;;3.87;;
7473;SDS011;3778;42.572;23.426;2022-08-21T06:45:55;7.90;;;3.80;;
7473;SDS011;3778;42.572;23.426;2022-08-21T06:48:22;6.43;;;3.87;;
7473;SDS011;3778;42.572;23.426;2022-08-21T06:50:50;6.13;;;4.10;;
7473;SDS011;3778;42.572;23.426;2022-08-21T06:53:18;10.40;;;5.40;;
7473;SDS011;3778;42.572;23.426;2022-08-21T06:55:47;9.00;;;4.10;;
7473;SDS011;3778;42.572;23.426;2022-08-21T06:58:15;9.50;;;4.37;;
7473;SDS011;3778;42.572;23.426;2022-08-21T07:00:43;6.10;;;4.17;;
7473;SDS011;3778;42.572;23.426;2022-08-21T07:03:16;7.17;;;3.70;;
7473;SDS011;3778;42.572;23.426;2022-08-21T07:05:46;9.43;;;4.10;;
7473;SDS011;3778;42.572;23.426;2022-08-21T07:08:14;5.60;;;3.80;;
7473;SDS011;3778;42.572;23.426;2022-08-21T07:10:41;9.00;;;4.33;;
7473;SDS011;3778;42.572;23.426;2022-08-21T07:13:08;7.50;;;4.70;;
7473;SDS011;3778;42.572;23.426;2022-08-21T07:15:35;11.50;;;5.00;;
7473;SDS011;3778;42.572;23.426;2022-08-21T07:18:02;13.27;;;5.60;;
7473;SDS011;3778;42.572;23.426;2022-08-21T07:20:29;7.80;;;5.00;;
7473;SDS011;3778;42.572;23.426;2022-08-21T07:22:59;6.63;;;4.87;;
7473;SDS011;3778;42.572;23.426;2022-08-21T07:25:30;6.50;;;3.90;;
7473;SDS011;3778;42.572;23.426;2022-08-21T07:27:57;7.03;;;5.07;;
7473;SDS011;3778;42.572;23.426;2022-08-21T07:30:24;12.03;;;5.77;;
7473;SDS011;3778;42.572;23.426;2022-08-21T07:32:51;7.67;;;5.10;;
7473;SDS011;3778;42.572;23.426;2022-08-21T07:35:19;7.83;;;5.27;;
7473;SDS011;3778;42.572;23.426;2022-08-21T07:37:47;12.60;;;5.80;;
7473;SDS011;3778;42.572;23.426;2022-08-21T07:40:14;6.20;;;4.17;;
7473;SDS011;3778;42.572;23.426;2022-08-21T07:42:44;7.93;;;4.80;;
7473;SDS011;3778;42.572;23.426;2022-08-21T07:45:14;10.53;;;4.47;;
7473;SDS011;3778;42.572;23.426;2022-08-21T07:47:41;10.47;;;4.30;;
7473;SDS011;3778;42.572;23.426;2022-08-21T07:50:08;7.87;;;4.33;;
7473;SDS011;3778;42.572;23.426;2022-08-21T07:52:36;10.80;;;4.53;;
7473;SDS011;3778;42.572;23.426;2022-08-21T07:55:03;11.97;;;5.03;;
7473;SDS011;3778;42.572;23.426;2022-08-21T07:57:30;8.63;;;4.37;;
7473;SDS011;3778;42.572;23.426;2022-08-21T07:59:59;11.17;;;4.53;;
7473;SDS011;3778;42.572;23.426;2022-08-21T08:02:26;8.07;;;4.43;;
7473;SDS011;3778;42.572;23.426;2022-08-21T08:04:57;7.73;;;4.53;;
7473;SDS011;3778;42.572;23.426;2022-08-21T08:07:25;13.87;;;4.60;;
7473;SDS011;3778;42.572;23.426;2022-08-21T08:09:52;7.27;;;4.67;;
7473;SDS011;3778;42.572;23.426;2022-08-21T08:12:19;9.23;;;4.67;;
7473;SDS011;3778;42.572;23.426;2022-08-21T08:14:46;9.00;;;4.80;;
7473;SDS011;3778;42.572;23.426;2022-08-21T08:17:14;8.67;;;4.40;;
7473;SDS011;3778;42.572;23.426;2022-08-21T08:19:41;10.70;;;4.00;;
7473;SDS011;3778;42.572;23.426;2022-08-21T08:22:14;12.30;;;4.90;;
7473;SDS011;3778;42.572;23.426;2022-08-21T08:24:42;11.40;;;5.23;;
7473;SDS011;3778;42.572;23.426;2022-08-21T08:27:09;13.53;;;4.40;;
7473;SDS011;3778;42.572;23.426;2022-08-21T08:29:35;12.33;;;5.33;;
7473;SDS011;3778;42.572;23.426;2022-08-21T08:32:02;13.60;;;5.30;;
7473;SDS011;3778;42.572;23.426;2022-08-21T08:34:31;14.73;;;5.60;;
7473;SDS011;3778;42.572;23.426;2022-08-21T08:36:58;9.20;;;5.30;;
7473;SDS011;3778;42.572;23.426;2022-08-21T08:39:25;8.87;;;5.20;;
7473;SDS011;3778;42.572;23.426;2022-08-21T08:41:52;6.30;;;4.70;;
7473;SDS011;3778;42.572;23.426;2022-08-21T08:44:36;10.63;;;5.43;;
7473;SDS011;3778;42.572;23.426;2022-08-21T08:47:03;10.07;;;4.90;;
7473;SDS011;3778;42.572;23.426;2022-08-21T08:49:34;13.40;;;5.67;;
7473;SDS011;3778;42.572;23.426;2022-08-21T08:52:07;12.10;;;5.57;;
7473;SDS011;3778;42.572;23.426;2022-08-21T08:54:42;10.23;;;5.67;;
7473;SDS011;3778;42.572;23.426;2022-08-21T08:57:14;10.93;;;4.43;;
7473;SDS011;3778;42.572;23.426;2022-08-21T08:59:44;11.00;;;5.37;;
7473;SDS011;3778;42.572;23.426;2022-08-21T09:02:14;10.07;;;5.33;;
7473;SDS011;3778;42.572;23.426;2022-08-21T09:04:44;10.10;;;4.80;;
7473;SDS011;3778;42.572;23.426;2022-08-21T09:07:16;15.10;;;5.53;;
7473;SDS011;3778;42.572;23.426;2022-08-21T09:10:00;7.63;;;4.87;;
7473;SDS011;3778;42.572;23.426;2022-08-21T09:12:38;12.90;;;5.83;;
7473;SDS011;3778;42.572;23.426;2022-08-21T09:15:15;8.83;;;4.27;;
7473;SDS011;3778;42.572;23.426;2022-08-21T09:17:55;9.97;;;5.23;;
7473;SDS011;3778;42.572;23.426;2022-08-21T09:20:39;9.70;;;4.77;;
7473;SDS011;3778;42.572;23.426;2022-08-21T09:23:16;11.57;;;5.17;;
7473;SDS011;3778;42.572;23.426;2022-08-21T09:25:56;10.20;;;5.30;;
7473;SDS011;3778;42.572;23.426;2022-08-21T09:28:30;8.17;;;5.37;;
7473;SDS011;3778;42.572;23.426;2022-08-21T09:30:58;9.90;;;5.90;;
7473;SDS011;3778;42.572;23.426;2022-08-21T09:33:27;10.20;;;5.23;;
7473;SDS011;3778;42.572;23.426;2022-08-21T09:35:56;9.20;;;5.03;;
7473;SDS011;3778;42.572;23.426;2022-08-21T09:38:24;11.67;;;5.37;;
7473;SDS011;3778;42.572;23.426;2022-08-21T09:40:57;12.33;;;5.40;;
7473;SDS011;3778;42.572;23.426;2022-08-21T09:43:26;6.90;;;5.40;;
7473;SDS011;3778;42.572;23.426;2022-08-21T09:46:07;7.97;;;4.70;;
7473;SDS011;3778;42.572;23.426;2022-08-21T09:48:40;8.67;;;4.80;;
7473;SDS011;3778;42.572;23.426;2022-08-21T09:51:11;7.80;;;4.90;;
7473;SDS011;3778;42.572;23.426;2022-08-21T09:53:42;12.67;;;5.27;;
7473;SDS011;3778;42.572;23.426;2022-08-21T09:56:17;9.97;;;4.60;;
7473;SDS011;3778;42.572;23.426;2022-08-21T09:59:15;9.20;;;5.10;;
7473;SDS011;3778;42.572;23.426;2022-08-21T10:01:45;7.30;;;5.20;;
7473;SDS011;3778;42.572;23.426;2022-08-21T10:04:13;12.67;;;5.47;;
7473;SDS011;3778;42.572;23.426;2022-08-21T10:06:43;12.37;;;5.50;;
7473;SDS011;3778;42.572;23.426;2022-08-21T10:09:10;9.73;;;5.20;;
7473;SDS011;3778;42.572;23.426;2022-08-21T10:11:40;12.30;;;5.47;;
7473;SDS011;3778;42.572;23.426;2022-08-21T10:14:14;10.30;;;5.27;;
7473;SDS011;3778;42.572;23.426;2022-08-21T10:16:51;11.87;;;6.83;;
7473;SDS011;3778;42.572;23.426;2022-08-21T10:19:31;8.80;;;5.47;;
7473;SDS011;3778;42.572;23.426;2022-08-21T10:22:09;11.60;;;6.53;;
7473;SDS011;3778;42.572;23.426;2022-08-21T10:24:51;14.73;;;5.67;;
7473;SDS011;3778;42.572;23.426;2022-08-21T10:27:29;8.80;;;5.80;;
7473;SDS011;3778;42.572;23.426;2022-08-21T10:30:06;12.10;;;6.00;;
7473;SDS011;3778;42.572;23.426;2022-08-21T10:32:42;8.53;;;5.27;;
7473;SDS011;3778;42.572;23.426;2022-08-21T10:35:17;12.77;;;6.33;;
7473;SDS011;3778;42.572;23.426;2022-08-21T10:38:00;10.93;;;6.40;;
7473;SDS011;3778;42.572;23.426;2022-08-21T10:40:45;9.27;;;6.33;;
7473;SDS011;3778;42.572;23.426;2022-08-21T10:43:23;7.00;;;5.60;;
7473;SDS011;3778;42.572;23.426;2022-08-21T10:46:00;11.00;;;5.87;;
7473;SDS011;3778;42.572;23.426;2022-08-21T10:48:44;9.43;;;5.70;;
7473;SDS011;3778;42.572;23.426;2022-08-21T10:51:16;7.50;;;4.40;;
7473;SDS011;3778;42.572;23.426;2022-08-21T10:53:57;9.93;;;5.00;;
7473;SDS011;3778;42.572;23.426;2022-08-21T10:56:30;10.93;;;5.53;;
7473;SDS011;3778;42.572;23.426;2022-08-21T10:59:01;10.27;;;5.27;;
7473;SDS011;3778;42.572;23.426;2022-08-21T11:01:42;6.30;;;4.67;;
7473;SDS011;3778;42.572;23.426;2022-08-21T11:04:16;9.93;;;4.93;;
7473;SDS011;3778;42.572;23.426;2022-08-21T11:06:47;8.55;;;5.10;;
7473;SDS011;3778;42.572;23.426;2022-08-21T11:09:20;12.10;;;4.75;;
7473;SDS011;3778;42.572;23.426;2022-08-21T11:11:52;10.80;;;4.78;;
7473;SDS011;3778;42.572;23.426;2022-08-21T11:14:24;9.07;;;4.25;;
7473;SDS011;3778;42.572;23.426;2022-08-21T11:17:00;7.60;;;4.27;;
7473;SDS011;3778;42.572;23.426;2022-08-21T11:19:33;8.50;;;4.50;;
7473;SDS011;3778;42.572;23.426;2022-08-21T11:22:06;9.20;;;5.43;;
7473;SDS011;3778;42.572;23.426;2022-08-21T11:24:54;9.70;;;5.22;;
7473;SDS011;3778;42.572;23.426;2022-08-21T11:27:28;6.55;;;4.18;;
7473;SDS011;3778;42.572;23.426;2022-08-21T11:29:59;6.97;;;4.40;;
7473;SDS011;3778;42.572;23.426;2022-08-21T11:35:39;7.40;;;4.53;;
7473;SDS011;3778;42.572;23.426;2022-08-21T11:38:19;6.60;;;5.15;;
7473;SDS011;3778;42.572;23.426;2022-08-21T11:41:02;9.98;;;5.13;;
7473;SDS011;3778;42.572;23.426;2022-08-21T11:43:38;10.90;;;6.18;;
7473;SDS011;3778;42.572;23.426;2022-08-21T11:46:11;12.93;;;4.80;;
7473;SDS011;3778;42.572;23.426;2022-08-21T11:48:49;6.25;;;4.60;;
7473;SDS011;3778;42.572;23.426;2022-08-21T11:51:39;6.95;;;4.75;;
7473;SDS011;3778;42.572;23.426;2022-08-21T11:54:13;9.63;;;5.30;;
7473;SDS011;3778;42.572;23.426;2022-08-21T11:56:50;8.40;;;4.60;;
7473;SDS011;3778;42.572;23.426;2022-08-21T11:59:22;10.23;;;4.53;;
7473;SDS011;3778;42.572;23.426;2022-08-21T12:01:51;7.97;;;5.20;;
7473;SDS011;3778;42.572;23.426;2022-08-21T12:04:22;8.47;;;5.27;;
7473;SDS011;3778;42.572;23.426;2022-08-21T12:06:54;8.27;;;5.17;;
7473;SDS011;3778;42.572;23.426;2022-08-21T12:09:33;9.40;;;5.17;;
7473;SDS011;3778;42.572;23.426;2022-08-21T12:12:04;8.57;;;5.23;;
7473;SDS011;3778;42.572;23.426;2022-08-21T12:14:37;9.47;;;4.97;;
7473;SDS011;3778;42.572;23.426;2022-08-21T12:17:06;9.27;;;4.70;;
7473;SDS011;3778;42.572;23.426;2022-08-21T12:19:35;7.23;;;5.27;;
7473;SDS011;3778;42.572;23.426;2022-08-21T12:39:23;9.23;;;5.80;;
7473;SDS011;3778;42.572;23.426;2022-08-21T12:41:55;11.17;;;5.90;;
7473;SDS011;3778;42.572;23.426;2022-08-21T12:44:27;11.33;;;5.97;;
7473;SDS011;3778;42.572;23.426;2022-08-21T12:47:00;12.77;;;6.67;;
7473;SDS011;3778;42.572;23.426;2022-08-21T12:49:32;10.07;;;5.40;;
7473;SDS011;3778;42.572;23.426;2022-08-21T12:52:09;9.53;;;5.40;;
7473;SDS011;3778;42.572;23.426;2022-08-21T12:54:44;12.83;;;5.93;;
7473;SDS011;3778;42.572;23.426;2022-08-21T12:57:17;9.13;;;5.17;;
7473;SDS011;3778;42.572;23.426;2022-08-21T12:59:45;8.00;;;5.43;;
7473;SDS011;3778;42.572;23.426;2022-08-21T13:02:16;10.17;;;6.00;;
7473;SDS011;3778;42.572;23.426;2022-08-21T13:04:46;11.37;;;6.13;;
7473;SDS011;3778;42.572;23.426;2022-08-21T13:07:16;12.57;;;6.97;;
7473;SDS011;3778;42.572;23.426;2022-08-21T13:09:52;11.37;;;5.87;;
7473;SDS011;3778;42.572;23.426;2022-08-21T13:12:21;11.80;;;6.03;;
7473;SDS011;3778;42.572;23.426;2022-08-21T13:14:49;12.33;;;6.40;;
7473;SDS011;3778;42.572;23.426;2022-08-21T13:17:19;10.93;;;6.83;;
7473;SDS011;3778;42.572;23.426;2022-08-21T13:19:52;11.50;;;6.30;;
7473;SDS011;3778;42.572;23.426;2022-08-21T13:22:21;9.23;;;6.27;;
7473;SDS011;3778;42.572;23.426;2022-08-21T13:24:48;11.33;;;6.27;;
7473;SDS011;3778;42.572;23.426;2022-08-21T13:27:18;13.63;;;6.90;;
7473;SDS011;3778;42.572;23.426;2022-08-21T13:29:47;10.30;;;6.40;;
7473;SDS011;3778;42.572;23.426;2022-08-21T13:32:18;12.17;;;7.10;;
7473;SDS011;3778;42.572;23.426;2022-08-21T13:34:49;21.97;;;7.33;;
7473;SDS011;3778;42.572;23.426;2022-08-21T13:37:16;10.97;;;6.43;;
7473;SDS011;3778;42.572;23.426;2022-08-21T13:39:48;10.83;;;6.00;;
7473;SDS011;3778;42.572;23.426;2022-08-21T13:42:15;15.07;;;6.77;;
7473;SDS011;3778;42.572;23.426;2022-08-21T13:44:44;11.97;;;6.90;;
7473;SDS011;3778;42.572;23.426;2022-08-21T13:47:13;10.20;;;6.67;;
7473;SDS011;3778;42.572;23.426;2022-08-21T13:49:43;13.70;;;7.57;;
7473;SDS011;3778;42.572;23.426;2022-08-21T13:52:13;10.27;;;7.23;;
7473;SDS011;3778;42.572;23.426;2022-08-21T13:54:42;21.47;;;7.60;;
7473;SDS011;3778;42.572;23.426;2022-08-21T13:57:15;13.27;;;7.27;;
7473;SDS011;3778;42.572;23.426;2022-08-21T13:59:44;13.90;;;6.87;;
7473;SDS011;3778;42.572;23.426;2022-08-21T14:02:12;17.73;;;7.43;;
7473;SDS011;3778;42.572;23.426;2022-08-21T14:04:42;13.67;;;7.23;;
7473;SDS011;3778;42.572;23.426;2022-08-21T14:07:17;15.43;;;7.27;;
7473;SDS011;3778;42.572;23.426;2022-08-21T14:09:46;10.40;;;6.80;;
7473;SDS011;3778;42.572;23.426;2022-08-21T14:12:15;8.77;;;6.70;;
7473;SDS011;3778;42.572;23.426;2022-08-21T14:14:46;10.80;;;7.23;;
7473;SDS011;3778;42.572;23.426;2022-08-21T14:17:14;11.27;;;6.87;;
7473;SDS011;3778;42.572;23.426;2022-08-21T14:19:53;11.33;;;6.50;;
7473;SDS011;3778;42.572;23.426;2022-08-21T14:22:23;10.23;;;7.07;;
7473;SDS011;3778;42.572;23.426;2022-08-21T14:25:01;9.33;;;7.03;;
7473;SDS011;3778;42.572;23.426;2022-08-21T14:27:31;12.70;;;7.70;;
7473;SDS011;3778;42.572;23.426;2022-08-21T14:30:03;10.77;;;6.23;;
7473;SDS011;3778;42.572;23.426;2022-08-21T14:32:37;14.63;;;7.07;;
7473;SDS011;3778;42.572;23.426;2022-08-21T14:35:07;13.70;;;7.30;;
7473;SDS011;3778;42.572;23.426;2022-08-21T14:37:35;9.40;;;6.27;;
7473;SDS011;3778;42.572;23.426;2022-08-21T14:40:02;9.17;;;6.27;;
7473;SDS011;3778;42.572;23.426;2022-08-21T14:42:30;10.13;;;5.77;;
7473;SDS011;3778;42.572;23.426;2022-08-21T14:45:00;10.07;;;6.47;;
7473;SDS011;3778;42.572;23.426;2022-08-21T14:47:33;7.80;;;5.90;;
7473;SDS011;3778;42.572;23.426;2022-08-21T14:50:02;11.83;;;5.87;;
7473;SDS011;3778;42.572;23.426;2022-08-21T14:52:29;9.57;;;5.87;;
7473;SDS011;3778;42.572;23.426;2022-08-21T14:54:56;11.30;;;6.13;;
7473;SDS011;3778;42.572;23.426;2022-08-21T14:57:22;6.90;;;5.43;;
7473;SDS011;3778;42.572;23.426;2022-08-21T14:59:51;7.47;;;5.53;;
7473;SDS011;3778;42.572;23.426;2022-08-21T15:02:20;12.70;;;5.87;;
7473;SDS011;3778;42.572;23.426;2022-08-21T15:04:47;9.70;;;6.90;;
7473;SDS011;3778;42.572;23.426;2022-08-21T15:07:13;8.17;;;5.77;;
7473;SDS011;3778;42.572;23.426;2022-08-21T15:09:40;7.63;;;5.73;;
7473;SDS011;3778;42.572;23.426;2022-08-21T15:12:07;9.17;;;5.83;;
7473;SDS011;3778;42.572;23.426;2022-08-21T15:14:35;10.70;;;6.67;;
7473;SDS011;3778;42.572;23.426;2022-08-21T15:17:06;11.03;;;6.40;;
7473;SDS011;3778;42.572;23.426;2022-08-21T15:19:34;14.47;;;7.03;;
7473;SDS011;3778;42.572;23.426;2022-08-21T15:22:02;12.27;;;6.20;;
7473;SDS011;3778;42.572;23.426;2022-08-21T15:24:29;14.40;;;6.33;;
7473;SDS011;3778;42.572;23.426;2022-08-21T15:26:56;8.43;;;6.30;;
7473;SDS011;3778;42.572;23.426;2022-08-21T15:29:25;14.27;;;6.43;;